Time;durP1;ratioP1;P1;durP2;ratioP2;P2;SDS_P1;SDS_P2;PMS_P1;PMS_P2;Temp;Humidity;BMP_temperature;BMP_pressure;BME280_temperature;BME280_humidity;BME280_pressure;Samples;Min_cycle;Max_cycle;Signal;HPM_P1;HPM_P2
2022/09/07 18:49:29;;;;;;;1999.90;999.90;;;;;;;22.69;100.00;93332.31;6286263;22;20191;-56
2022/09/07 18:51:54;;;;;;;1999.90;999.90;;;;;;;22.64;100.00;93296.97;6246820;23;20201;-60
2022/09/07 18:54:19;;;;;;;1999.90;999.90;;;;;;;22.57;100.00;93264.22;6252869;23;20263;-61
2022/09/07 18:56:45;;;;;;;1999.90;999.90;;;;;;;22.44;100.00;93228.00;6252616;23;20145;-58
2022/09/07 18:59:12;;;;;;;1999.90;999.90;;;;;;;22.45;100.00;93199.63;6278449;22;20176;-55
2022/09/07 19:01:37;;;;;;;1999.90;999.90;;;;;;;22.40;100.00;93175.44;6252698;23;20259;-55
2022/09/07 19:04:04;;;;;;;1999.90;999.90;;;;;;;22.34;100.00;93141.41;6252945;23;20215;-56
2022/09/07 19:06:30;;;;;;;1999.90;999.90;;;;;;;22.29;100.00;93147.81;6252431;23;20238;-57
2022/09/07 19:08:55;;;;;;;1999.90;999.90;;;;;;;22.30;100.00;93118.72;6275461;22;20177;-61
2022/09/07 19:11:23;;;;;;;1999.90;999.90;;;;;;;22.25;100.00;93065.97;6245848;23;20252;-56
2022/09/07 19:14:02;;;;;;;1999.90;999.90;;;;;;;22.09;100.00;93025.34;6246160;23;20177;-55
2022/09/07 19:16:28;;;;;;;1999.90;999.90;;;;;;;22.06;100.00;92888.16;6272318;22;20180;-58
2022/09/07 19:18:56;;;;;;;1999.90;999.90;;;;;;;22.01;100.00;92825.06;6271641;22;20181;-57
2022/09/07 19:21:42;;;;;;;1999.90;999.90;;;;;;;22.02;100.00;92829.34;6246379;23;20188;-58
2022/09/07 19:24:12;;;;;;;1999.90;999.90;;;;;;;22.03;100.00;92835.63;6270725;22;20185;-56
2022/09/07 19:26:41;;;;;;;1999.90;999.90;;;;;;;22.08;100.00;92857.75;6246142;23;20192;-56
2022/09/07 19:29:17;;;;;;;1999.90;999.90;;;;;;;22.07;100.00;92849.97;6245932;23;20184;-55
2022/09/07 19:32:02;;;;;;;1999.90;999.90;;;;;;;22.08;100.00;92849.41;6246021;23;20187;-57
2022/09/07 19:34:32;;;;;;;1999.90;999.90;;;;;;;22.07;100.00;92855.53;6246482;23;20275;-57
2022/09/07 19:36:58;;;;;;;1999.90;999.90;;;;;;;22.09;100.00;92850.16;6245752;23;20185;-59
2022/09/07 19:39:23;;;;;;;1999.90;999.90;;;;;;;22.07;100.00;92853.47;6245735;23;20185;-56
2022/09/07 19:41:48;;;;;;;1999.90;999.90;;;;;;;22.03;100.00;92855.84;6246451;23;20145;-56
2022/09/07 19:44:14;;;;;;;1999.90;999.90;;;;;;;22.07;100.00;92844.41;6271757;22;20224;-56
2022/09/07 19:46:40;;;;;;;1999.90;999.90;;;;;;;22.06;100.00;92865.91;6271369;22;20227;-58
2022/09/07 19:49:10;;;;;;;1999.90;999.90;;;;;;;22.02;100.00;92854.38;6271519;22;20181;-56
2022/09/07 19:51:37;;;;;;;1999.90;999.90;;;;;;;22.02;100.00;92836.91;6299048;22;20208;-57
2022/09/07 19:54:02;;;;;;;1999.90;999.90;;;;;;;21.99;100.00;92819.28;6302245;22;20172;-56
2022/09/07 19:56:27;;;;;;;1999.90;999.90;;;;;;;21.94;100.00;92792.38;6276323;22;20176;-57
2022/09/07 19:58:53;;;;;;;1999.90;999.90;;;;;;;21.91;100.00;92748.22;6301791;22;20184;-58
2022/09/07 20:01:22;;;;;;;1999.90;999.90;;;;;;;21.78;100.00;92729.56;6277130;22;20176;-57
2022/09/07 20:03:55;;;;;;;1999.90;999.90;;;;;;;21.72;100.00;92703.19;6302238;22;20286;-58
2022/09/07 20:06:20;;;;;;;1999.90;999.90;;;;;;;21.68;100.00;92647.19;6302215;22;20172;-59
2022/09/07 20:08:46;;;;;;;1999.90;999.90;;;;;;;21.64;100.00;92625.28;6276817;22;20172;-59
2022/09/07 20:11:14;;;;;;;1999.90;999.90;;;;;;;21.59;100.00;92609.50;6277000;22;20259;-59
2022/09/07 20:13:40;;;;;;;1999.90;999.90;;;;;;;21.58;100.00;92621.91;6276804;22;20177;-55
2022/09/07 20:16:09;;;;;;;1999.90;999.90;;;;;;;21.53;100.00;92591.50;6275896;22;20181;-58
2022/09/07 20:18:35;;;;;;;1999.90;999.90;;;;;;;21.47;100.00;92572.19;6301960;22;20188;-59
2022/09/07 20:21:05;;;;;;;1999.90;999.90;;;;;;;21.43;100.00;92560.66;6301769;22;20176;-59
2022/09/07 20:23:31;;;;;;;1999.90;999.90;;;;;;;21.39;100.00;92567.84;6276338;22;20622;-59
2022/09/07 20:26:02;;;;;;;1999.90;999.90;;;;;;;21.34;100.00;92579.84;6302112;22;20184;-60
2022/09/07 20:28:30;;;;;;;1999.90;999.90;;;;;;;21.28;100.00;92582.75;6302472;22;20191;-58
2022/09/07 20:30:56;;;;;;;1999.90;999.90;;;;;;;21.22;100.00;92582.13;6302858;22;20184;-54
2022/09/07 20:33:22;;;;;;;1999.90;999.90;;;;;;;21.24;100.00;92581.59;6301746;22;20266;-58
2022/09/07 20:35:48;;;;;;;1999.90;999.90;;;;;;;21.22;100.00;92575.81;6301932;22;20198;-55
2022/09/07 20:38:19;;;;;;;1999.90;999.90;;;;;;;21.20;100.00;92570.78;6302055;22;20192;-55
2022/09/07 20:40:59;;;;;;;1999.90;999.90;;;;;;;21.18;100.00;92550.41;6276149;22;20176;-60
2022/09/07 20:43:25;;;;;;;1999.90;999.90;;;;;;;21.15;100.00;92552.25;6302179;22;20203;-59
2022/09/07 20:45:58;;;;;;;1999.90;999.90;;;;;;;21.14;100.00;92550.75;6276430;22;20230;-57
2022/09/07 20:48:25;;;;;;;1999.90;999.90;;;;;;;21.10;100.00;92544.81;6276371;22;20190;-59
2022/09/07 20:50:59;;;;;;;1999.90;999.90;;;;;;;21.06;100.00;92532.53;6275953;22;20192;-59
2022/09/07 20:53:25;;;;;;;1999.90;999.90;;;;;;;20.99;100.00;92527.66;6302104;22;20179;-56
2022/09/07 20:56:02;;;;;;;1999.90;999.90;;;;;;;20.98;100.00;92521.34;6276536;22;20176;-56
2022/09/07 20:58:28;;;;;;;1999.90;999.90;;;;;;;20.97;100.00;92511.53;6276655;22;20238;-55
2022/09/07 21:00:53;;;;;;;1999.90;999.90;;;;;;;20.97;100.00;92505.25;6302547;22;20180;-59
2022/09/07 21:03:19;;;;;;;1999.90;999.90;;;;;;;20.95;100.00;92513.38;6277695;22;20530;-56
2022/09/07 21:05:44;;;;;;;1999.90;999.90;;;;;;;20.94;100.00;92514.66;6302047;22;20238;-55
2022/09/07 21:08:10;;;;;;;1999.90;999.90;;;;;;;20.91;100.00;92505.34;6301845;22;20207;-55
2022/09/07 21:10:39;;;;;;;1999.90;999.90;;;;;;;20.90;100.00;92492.75;6276172;22;20204;-54
2022/09/07 21:13:05;;;;;;;1999.90;999.90;;;;;;;20.86;100.00;92486.81;6276304;22;20306;-56
2022/09/07 21:15:30;;;;;;;1999.90;999.90;;;;;;;20.83;100.00;92482.31;6301954;22;20175;-58
2022/09/07 21:17:56;;;;;;;1999.90;999.90;;;;;;;20.80;100.00;92477.84;6301816;22;20243;-57
2022/09/07 21:20:21;;;;;;;1999.90;999.90;;;;;;;20.78;100.00;92463.03;6302177;22;20234;-59
2022/09/07 21:22:46;;;;;;;1999.90;999.90;;;;;;;20.79;100.00;92464.53;6275897;22;20179;-58
2022/09/07 21:25:12;;;;;;;1999.90;999.90;;;;;;;20.75;100.00;92464.88;6301803;22;20239;-57
2022/09/07 21:27:37;;;;;;;1999.90;999.90;;;;;;;20.72;100.00;92457.63;6276337;22;20187;-57
2022/09/07 21:30:04;;;;;;;1999.90;999.90;;;;;;;20.69;100.00;92450.38;6302577;22;20251;-56
2022/09/07 21:32:30;;;;;;;1999.90;999.90;;;;;;;20.68;100.00;92448.88;6301888;22;20191;-56
2022/09/07 21:34:55;;;;;;;1999.90;999.90;;;;;;;20.61;100.00;92449.56;6301750;22;20169;-56
2022/09/07 21:37:21;;;;;;;1999.90;999.90;;;;;;;20.62;100.00;92442.75;6301703;22;20245;-57
2022/09/07 21:39:46;;;;;;;1999.90;999.90;;;;;;;20.57;100.00;92426.97;6275925;22;20264;-57
2022/09/07 21:42:12;;;;;;;1999.90;999.90;;;;;;;20.53;100.00;92434.88;6301582;22;20267;-58
2022/09/07 21:44:37;;;;;;;1999.90;999.90;;;;;;;20.51;100.00;92433.94;6301807;22;20212;-58
2022/09/07 21:47:03;;;;;;;1999.90;999.90;;;;;;;20.48;100.00;92438.53;6301658;22;20183;-58
2022/09/07 21:49:28;;;;;;;1999.90;999.90;;;;;;;20.54;100.00;92450.22;6301851;22;20176;-56
2022/09/07 21:51:53;;;;;;;1999.90;999.90;;;;;;;20.71;100.00;92477.56;6301828;22;20176;-58
2022/09/07 21:54:19;;;;;;;1999.90;999.90;;;;;;;20.77;100.00;92498.38;6301499;22;20230;-57
2022/09/07 21:56:44;;;;;;;1999.90;999.90;;;;;;;20.79;100.00;92504.13;6301496;22;20153;-55
2022/09/07 21:59:10;;;;;;;1999.90;999.90;;;;;;;20.82;100.00;92502.28;6302340;22;20263;-56
2022/09/07 22:01:35;;;;;;;1999.90;999.90;;;;;;;20.81;100.00;92507.09;6301828;22;20190;-59
2022/09/07 22:04:03;;;;;;;1999.90;999.90;;;;;;;20.76;100.00;92505.19;6301525;22;20255;-58
2022/09/07 22:06:30;;;;;;;1999.90;999.90;;;;;;;20.79;100.00;92515.22;6275576;22;20186;-58
2022/09/07 22:08:57;;;;;;;1999.90;999.90;;;;;;;20.77;100.00;92517.03;6301860;22;20176;-58
2022/09/07 22:11:24;;;;;;;1999.90;999.90;;;;;;;20.73;100.00;92505.53;6301481;22;20203;-58
2022/09/07 22:13:54;;;;;;;1999.90;999.90;;;;;;;20.68;100.00;92514.72;6301474;22;20185;-58
2022/09/07 22:16:20;;;;;;;1999.90;999.90;;;;;;;20.60;100.00;92498.00;6275738;22;20184;-58
2022/09/07 22:18:45;;;;;;;1999.90;999.90;;;;;;;20.58;100.00;92475.59;6300878;22;20195;-59
2022/09/07 22:21:17;;;;;;;1999.90;999.90;;;;;;;20.57;100.00;92457.47;6302341;22;20180;-58
2022/09/07 22:23:45;;;;;;;1999.90;999.90;;;;;;;20.57;100.00;92442.88;6301458;22;20184;-59
2022/09/07 22:26:11;;;;;;;1999.90;999.90;;;;;;;20.49;100.00;92428.16;6301863;22;20234;-58
2022/09/07 22:28:37;;;;;;;1999.90;999.90;;;;;;;20.49;100.00;92419.84;6300928;22;20247;-59
2022/09/07 22:31:22;;;;;;;1999.90;999.90;;;;;;;20.47;100.00;92417.59;6301153;22;20219;-58
2022/09/07 22:33:50;;;;;;;1999.90;999.90;;;;;;;20.51;100.00;92417.28;6301529;22;20181;-59
2022/09/07 22:36:19;;;;;;;1999.90;999.90;;;;;;;20.51;100.00;92417.28;6301346;22;20180;-58
2022/09/07 22:38:48;;;;;;;1999.90;999.90;;;;;;;20.54;100.00;92455.75;6300977;22;20216;-59
2022/09/07 22:41:21;;;;;;;1999.90;999.90;;;;;;;20.53;100.00;92470.91;6301284;22;20184;-59
2022/09/07 22:43:49;;;;;;;1999.90;999.90;;;;;;;20.52;100.00;92463.13;6301837;22;20594;-59
2022/09/07 22:46:16;;;;;;;1999.90;999.90;;;;;;;20.54;100.00;92443.94;6277007;22;20164;-59
2022/09/07 22:48:42;;;;;;;1999.90;999.90;;;;;;;20.60;100.00;92447.31;6303284;22;20172;-58
2022/09/07 22:51:08;;;;;;;1999.90;999.90;;;;;;;20.72;100.00;92460.38;6302894;22;20193;-58
2022/09/07 22:53:36;;;;;;;1999.90;999.90;;;;;;;20.76;100.00;92488.53;6276902;22;20180;-59
2022/09/07 22:56:13;;;;;;;1999.90;999.90;;;;;;;20.93;100.00;92507.59;6302536;22;20187;-58
2022/09/07 22:58:43;;;;;;;1999.90;999.90;;;;;;;21.04;100.00;92532.31;6302889;22;20267;-59
2022/09/07 23:01:09;;;;;;;1999.90;999.90;;;;;;;21.14;100.00;92550.75;6276962;22;20177;-58
2022/09/07 23:03:34;;;;;;;1999.90;999.90;;;;;;;21.21;100.00;92572.31;6302521;22;20183;-56
2022/09/07 23:05:59;;;;;;;1999.90;999.90;;;;;;;21.24;100.00;92576.75;6302426;22;20181;-58
2022/09/07 23:08:26;;;;;;;1999.90;999.90;;;;;;;21.25;100.00;92581.03;6302358;22;20180;-58
2022/09/07 23:10:52;;;;;;;1999.90;999.90;;;;;;;21.27;100.00;92575.69;6302516;22;20173;-57
2022/09/07 23:13:18;;;;;;;1999.90;999.90;;;;;;;21.26;100.00;92585.31;6302359;22;20152;-59
2022/09/07 23:15:44;;;;;;;1999.90;999.90;;;;;;;21.24;100.00;92601.75;6302808;22;20176;-59
2022/09/07 23:18:15;;;;;;;1999.90;999.90;;;;;;;21.25;100.00;92617.13;6302250;22;20189;-58
2022/09/07 23:20:40;;;;;;;1999.90;999.90;;;;;;;21.21;100.00;92641.72;6302506;22;20180;-59
2022/09/07 23:23:06;;;;;;;1999.90;999.90;;;;;;;21.15;100.00;92654.97;6302457;22;20176;-59
2022/09/07 23:25:37;;;;;;;1999.90;999.90;;;;;;;21.00;100.00;92646.47;6276605;22;20180;-59
2022/09/07 23:28:04;;;;;;;1999.90;999.90;;;;;;;20.93;100.00;92647.13;6302696;22;20187;-59
2022/09/07 23:30:29;;;;;;;1999.90;999.90;;;;;;;20.87;100.00;92632.56;6302368;22;20207;-58
2022/09/07 23:32:55;;;;;;;1999.90;999.90;;;;;;;20.85;100.00;92621.28;6302629;22;20511;-58
2022/09/07 23:35:20;;;;;;;1999.90;999.90;;;;;;;20.75;100.00;92614.69;6302614;22;20173;-57
2022/09/07 23:37:46;;;;;;;1999.90;999.90;;;;;;;20.62;100.00;92581.44;6303013;22;20258;-58
2022/09/07 23:40:12;;;;;;;1999.90;999.90;;;;;;;20.51;100.00;92551.16;6302379;22;20180;-59
2022/09/07 23:42:37;;;;;;;1999.90;999.90;;;;;;;20.37;100.00;92524.72;6302997;22;20168;-58
2022/09/07 23:45:04;;;;;;;1999.90;999.90;;;;;;;20.25;100.00;92490.19;6302504;22;20173;-58
2022/09/07 23:47:29;;;;;;;1999.90;999.90;;;;;;;20.25;100.00;92472.81;6303025;22;20275;-58
2022/09/07 23:49:55;;;;;;;1999.90;999.90;;;;;;;20.23;100.00;92469.81;6302386;22;20204;-58
2022/09/07 23:52:20;;;;;;;1999.90;999.90;;;;;;;20.15;100.00;92480.84;6302852;22;20215;-58
2022/09/07 23:54:46;;;;;;;1999.90;999.90;;;;;;;20.03;100.00;92490.59;6301930;22;20181;-58
2022/09/07 23:57:11;;;;;;;1999.90;999.90;;;;;;;19.97;100.00;92483.69;6302470;22;20230;-59
2022/09/07 23:59:36;;;;;;;1999.90;999.90;;;;;;;19.88;100.00;92467.53;6302795;22;20227;-59
